Flight Track Log - Related Links

Times and Time Zones

All times are in EST time to prevent confusion due to time zone crossing. See the EJA929 flight status page for this flight to view local times or setup timezone preferences in your user account.

Time Position Orientation Groundspeed Altitude Reporting Facility
EST Latitude Longitude Course Direction KTS MPH feet Rate Location/Type
Tue 12:31:07 PM 39.9925 -82.8783 98° East 165 190 1,500  Level Indianapolis Center
Tue 12:31:56 PM 39.9856 -82.8136 98° East 232 267 4,100 4,000 Climbing Indianapolis Center
Tue 12:32:58 PM 39.9764 -82.7222 97° East 249 287 8,900 2,855 Climbing Indianapolis Center
Tue 12:34:00 PM 40.0447 -82.6664 32° Northeast 344 396 10,000 1,756 Climbing Indianapolis Center
Tue 12:35:01 PM 40.0944 -82.7733 301° West 362 417 12,500 927 Climbing Indianapolis Center
Tue 12:36:03 PM 40.1097 -82.8928 280° West 337 388 11,900 1,161 Descending Indianapolis Center
Tue 12:37:05 PM 40.1344 -83.0242 284° West 368 423 14,900 3,048 Climbing Indianapolis Center
Tue 12:38:07 PM 40.1681 -83.1858 285° West 388 447 18,200 2,710 Climbing Indianapolis Center
Tue 12:39:09 PM 40.1947 -83.3175 285° West 380 437 20,500 1,694 Climbing Indianapolis Center
Tue 12:40:11 PM 40.2206 -83.4514 284° West 384 442 21,700 1,171 Climbing Indianapolis Center
Tue 12:41:12 PM 40.2486 -83.5919 285° West 400 460 22,900 1,171 Climbing Indianapolis Center
Tue 12:42:14 PM 40.2775 -83.7375 285° West 412 474 24,100 1,258 Climbing Indianapolis Center
Tue 12:43:16 PM 40.3114 -83.9169 284° West 424 488 25,500 1,258 Climbing Indianapolis Center
Tue 12:44:18 PM 40.3414 -84.0706 284° West 435 501 26,700 1,161 Climbing Indianapolis Center
Tue 12:45:20 PM 40.3706 -84.2256 284° West 440 506 27,900 1,113 Climbing Indianapolis Center
Tue 12:46:22 PM 40.4000 -84.3828 284° West 446 513 29,000 968 Climbing Indianapolis Center
Tue 12:47:24 PM 40.4308 -84.5425 284° West 452 520 29,900 968 Climbing Indianapolis Center
Tue 12:48:26 PM 40.4664 -84.7378 284° West 459 528 31,000 1,065 Climbing Indianapolis Center
Tue 12:49:28 PM 40.4981 -84.9056 284° West 461 531 32,100 1,016 Climbing Indianapolis Center
Tue 12:50:30 PM 40.5281 -85.0664 284° West 457 526 33,100 1,024 Climbing Indianapolis Center
Tue 12:51:31 PM 40.5564 -85.2247 283° West 452 520 34,200 1,073 Climbing Chicago Center
Tue 12:52:33 PM 40.5850 -85.3856 283° West 453 521 35,300 1,065 Climbing Chicago Center
Tue 12:53:35 PM 40.6128 -85.5428 283° West 447 514 36,400 1,065 Climbing Chicago Center
Tue 12:54:37 PM 40.6411 -85.7003 283° West 446 513 37,500 1,161 Climbing Chicago Center
Tue 12:55:39 PM 40.6739 -85.8864 283° West 440 506 38,800 1,161 Climbing Chicago Center
Tue 12:56:41 PM 40.7008 -86.0394 283° West 434 499 39,900 532 Climbing Chicago Center
Tue 12:57:43 PM 40.7278 -86.1939 283° West 435 501 39,900 339 Level Chicago Center
Tue 12:58:45 PM 40.7544 -86.3514 283° West 442 509 40,600 912 Climbing Chicago Center
Tue 12:59:48 PM 40.7839 -86.5347 282° West 434 499 41,800 1,056 Climbing Chicago Center
Tue 01:00:50 PM 40.8092 -86.6875 282° West 430 495 42,800 968 Climbing Chicago Center
Tue 01:01:52 PM 40.8353 -86.8364 283° West 424 488 43,800 968 Climbing Chicago Center
Tue 01:02:54 PM 40.8606 -86.9831 283° West 418 481 44,800 581 Climbing Chicago Center
Tue 01:03:56 PM 40.8842 -87.1286 282° West 412 474 45,000 48 Climbing Chicago Center
Tue 01:04:58 PM 40.9092 -87.2803 282° West 416 479 44,900  Descending Chicago Center
Tue 01:06:00 PM 40.9383 -87.4658 282° West 424 488 45,000 48 Climbing Chicago Center
Tue 01:07:02 PM 40.9633 -87.6214 282° West 430 495 45,000 -48 Level Chicago Center
Tue 01:08:04 PM 40.9753 -87.7786 276° West 431 496 44,900 -48 Descending Chicago Center
Tue 01:09:06 PM 40.9778 -87.9367 271° West 429 494 44,900  Level Chicago Center
Tue 01:10:08 PM 40.9822 -88.0958 272° West 431 496 44,900  Level Chicago Center
Tue 01:11:10 PM 40.9853 -88.2544 272° West 432 497 44,900  Level Chicago Center
Tue 01:12:12 PM 40.9881 -88.4136 271° West 432 497 44,900  Level Chicago Center
Tue 01:13:14 PM 40.9922 -88.6000 272° West 431 496 44,900  Level Chicago Center
Tue 01:14:16 PM 40.9947 -88.7633 271° West 432 497 44,900  Level Chicago Center
Tue 01:15:18 PM 40.9972 -88.9186 271° West 435 501 44,900 48 Level Chicago Center
Tue 01:16:20 PM 40.9994 -89.0761 271° West 431 496 45,000  Climbing Chicago Center
Tue 01:17:22 PM 41.0011 -89.2347 271° West 432 497 44,900 -48 Descending Chicago Center
Tue 01:18:24 PM 41.0033 -89.4247 271° West 432 497 44,900 48 Level Chicago Center
Tue 01:19:26 PM 41.0047 -89.5839 271° West 435 501 45,000  Climbing Chicago Center
Tue 01:20:28 PM 41.0069 -89.7428 271° West 437 503 44,900  Descending Chicago Center
Tue 01:21:30 PM 41.0089 -89.9022 271° West 439 505 45,000  Climbing Chicago Center
Tue 01:22:32 PM 41.0086 -90.0611 270° West 438 504 44,900 -49 Descending Chicago Center
Tue 01:23:33 PM 41.0103 -90.2536 271° West 440 506 44,900  Level Chicago Center
Tue 01:24:35 PM 41.0092 -90.4169 270° West 445 512 44,900 48 Level Chicago Center
Tue 01:25:37 PM 41.0092 -90.5772 270° West 439 505 45,000 48 Climbing Chicago Center
Tue 01:26:39 PM 41.0097 -90.7383 270° West 439 505 45,000 -48 Level Chicago Center
Tue 01:27:41 PM 41.0094 -90.8997 270° West 439 505 44,900 -48 Descending Chicago Center
Tue 01:28:43 PM 41.0089 -91.0617 270° West 440 506 44,900  Level Chicago Center
Tue 01:29:45 PM 41.0083 -91.2572 270° West 442 509 44,900  Level Chicago Center
Tue 01:30:47 PM 41.0069 -91.4189 269° West 441 507 44,900 48 Level Chicago Center
Tue 01:31:49 PM 41.0067 -91.5803 270° West 439 505 45,000 48 Climbing Chicago Center
Tue 01:32:51 PM 41.0056 -91.7475 270° West 441 507 45,000 -48 Level Chicago Center
Tue 01:33:53 PM 41.0042 -91.9078 269° West 441 507 44,900 -48 Descending Chicago Center
Tue 01:34:55 PM 41.0017 -92.0681 269° West 439 505 44,900 48 Level Chicago Center
Tue 01:35:57 PM 40.9994 -92.2269 269° West 439 505 45,000 48 Climbing Chicago Center
Tue 01:36:59 PM 40.9964 -92.4197 269° West 441 507 45,000  Level Chicago Center
Tue 01:38:01 PM 40.9942 -92.5783 269° West 439 505 45,000 -49 Level Chicago Center
Tue 01:39:02 PM 40.9914 -92.7378 269° West 440 506 44,900 -49 Descending Chicago Center
Tue 01:40:04 PM 40.9883 -92.8956 269° West 436 502 44,900 48 Level Chicago Center
Tue 01:41:06 PM 40.9844 -93.0864 269° West 438 504 45,000  Climbing Chicago Center
Tue 01:42:08 PM 40.9819 -93.2464 269° West 439 505 44,900 -48 Descending Chicago Center
Tue 01:43:10 PM 40.9775 -93.4053 268° West 438 504 44,900 49 Level Chicago Center
Tue 01:44:11 PM 40.9742 -93.5636 268° West 438 504 45,000  Climbing Minneapolis Center
Tue 01:45:13 PM 40.9703 -93.7242 268° West 441 507 44,900 -677 Descending Minneapolis Center
Tue 01:46:15 PM 40.9661 -93.8833 268° West 438 504 43,600 -1,452 Descending Minneapolis Center
Tue 01:47:17 PM 40.9608 -94.0800 268° West 446 513 41,900 -1,500 Descending Minneapolis Center
Tue 01:48:19 PM 40.9558 -94.2453 268° West 451 519 40,500 -1,355 Descending Minneapolis Center
Tue 01:49:21 PM 40.9497 -94.4100 267° West 452 520 39,100 -1,317 Descending Minneapolis Center
Tue 01:50:22 PM 40.9456 -94.5672 268° West 452 520 37,800 -1,463 Descending Minneapolis Center
Tue 01:51:24 PM 40.9372 -94.7714 267° West 459 528 36,100 -1,500 Descending Minneapolis Center
Tue 01:52:26 PM 40.9314 -94.9408 267° West 461 531 34,700 -1,597 Descending Minneapolis Center
Tue 01:53:28 PM 40.9250 -95.1114 267° West 461 531 32,800 -1,902 Descending Minneapolis Center
Tue 01:54:29 PM 40.9186 -95.2836 267° West 464 534 30,800 -2,079 Descending Minneapolis Center
Tue 01:55:09 PM 40.9186 -95.4056 270° West 475 547 29,300 -2,129 Descending Minneapolis Center
Tue 01:55:31 PM 40.9119 -95.4572 260° West 467 537 28,600 -2,430 Descending Minneapolis Center
Tue 01:56:28 PM 40.9069 -95.6306 268° West 467 537 26,100 -2,323 Descending Minneapolis Center
Tue 01:56:33 PM 40.9044 -95.6317 199° South 471 542 26,200 -2,361 Climbing Minneapolis Center
Tue 01:57:29 PM 40.8972 -95.7944 267° West 446 513 23,700 -2,323 Descending Minneapolis Center
Tue 01:57:35 PM 40.8969 -95.7975 263° West 459 528 23,800 -2,361 Climbing Minneapolis Center
Tue 01:58:30 PM 40.8869 -95.9556 265° West 436 502 21,300 -2,459 Descending Minneapolis Center
Tue 01:58:36 PM 40.8894 -95.9581 323° Northwest 443 510 21,300 -3,200 Level Minneapolis Center
Tue 01:59:30 PM 40.8792 -96.1244 265° West 431 496 18,100 -2,806 Descending Minneapolis Center
Tue 01:59:38 PM 40.8817 -96.1153 70° East 432 497 18,400 -3,344 Climbing Minneapolis Center
Tue 02:00:31 PM 40.8825 -96.2731 270° West 383 441 14,700 -3,968 Descending Minneapolis Center
Tue 02:00:40 PM 40.8889 -96.2947 291° West 404 465 14,300 -3,148 Descending Minneapolis Center
Tue 02:01:32 PM 40.8931 -96.4097 273° West 360 414 11,500 -3,000 Descending Minneapolis Center
Tue 02:01:42 PM 40.9025 -96.4286 303° West 383 441 11,200 -2,182 Descending Minneapolis Center
Tue 02:02:27 PM 40.9056 -96.5131 273° West 290 334 9,500 -2,459 Descending Minneapolis Center
Tue 02:02:43 PM 40.9167 -96.5386 300° West 338 389 8,700 -2,583 Descending Minneapolis Center
Tue 02:03:39 PM 40.9206 -96.6217 274° West 249 287 6,400 -2,226 Descending Minneapolis Center
Tue 02:03:45 PM 40.9311 -96.6308 327° Northwest 285 328 6,400 -1,377 Level Minneapolis Center
Tue 02:04:40 PM 40.9289 -96.6897 267° West 159 183 5,000 -1,452 Descending Minneapolis Center
Tue 02:04:47 PM 40.9408 -96.7006 326° Northwest 237 273 4,900 -2,618 Descending Minneapolis Center
Tue 02:05:35 PM 40.9022 -96.7339 213° Southwest 164 189 2,600 -2,419 Descending Minneapolis Center
Tue 02:05:49 PM 40.9100 -96.7425 320° Northwest 188 216 2,400 -1,000 Descending Minneapolis Center
Tue 02:06:35 PM 40.8675 -96.7458 183° South 107 123 1,600 -677 Descending Minneapolis Center
Tue 02:06:51 PM 40.8725 -96.7558 303° West 160 184 1,700 375 Climbing Minneapolis Center

Login

Don't have an account? Register now (free) for customized features, flight alerts, and more!